Time;durP1;ratioP1;P1;durP2;ratioP2;P2;SDS_P1;SDS_P2;PMS_P1;PMS_P2;Temp;Humidity;BMP_temperature;BMP_pressure;BME280_temperature;BME280_humidity;BME280_pressure;Samples;Min_cycle;Max_cycle;Signal;HPM_P1;HPM_P2
2021/12/27 00:02:17;;;;;;;23.10;11.57;;;;;;;6.76;100.00;98959.84;5012270;28;20076;-66
2021/12/27 00:04:44;;;;;;;23.10;11.23;;;;;;;6.72;100.00;98961.78;5001014;28;20430;-66
2021/12/27 00:07:10;;;;;;;20.77;11.25;;;;;;;6.70;100.00;98956.50;4991114;28;20062;-66
2021/12/27 00:09:36;;;;;;;24.55;11.95;;;;;;;6.70;100.00;98964.44;4994224;28;20034;-66
2021/12/27 00:12:03;;;;;;;22.58;11.73;;;;;;;6.66;100.00;98956.66;4991472;28;20382;-67
2021/12/27 00:14:28;;;;;;;24.27;11.57;;;;;;;6.72;100.00;98967.06;4992002;28;21245;-66
2021/12/27 00:16:53;;;;;;;23.80;11.20;;;;;;;6.70;100.00;98961.78;4993311;28;20613;-66
2021/12/27 00:19:19;;;;;;;25.63;11.90;;;;;;;6.68;100.00;98958.38;4991507;28;20038;-66
2021/12/27 00:21:44;;;;;;;27.48;10.98;;;;;;;6.78;100.00;98960.66;5008793;28;20030;-66
2021/12/27 00:24:10;;;;;;;21.30;11.88;;;;;;;6.69;100.00;98938.06;5007600;28;20030;-66
2021/12/27 00:26:35;;;;;;;25.77;13.00;;;;;;;6.85;100.00;98959.56;4999585;28;20500;-66
2021/12/27 00:29:00;;;;;;;20.02;10.32;;;;;;;6.84;100.00;98950.75;4990248;28;20125;-66
2021/12/27 00:31:26;;;;;;;22.35;11.45;;;;;;;6.84;100.00;98966.63;4991385;28;20022;-66
2021/12/27 00:33:51;;;;;;;24.90;12.70;;;;;;;6.84;100.00;98956.03;4992111;28;20077;-66
2021/12/27 00:36:17;;;;;;;24.70;11.90;;;;;;;6.87;100.00;98963.03;4993878;28;20125;-66
2021/12/27 00:38:42;;;;;;;26.20;11.95;;;;;;;6.86;100.00;98948.94;4990834;28;20022;-66
2021/12/27 00:41:08;;;;;;;25.50;11.13;;;;;;;6.84;100.00;98939.34;4994593;28;20433;-66
2021/12/27 00:43:33;;;;;;;22.83;11.45;;;;;;;6.91;100.00;98957.56;4994616;28;20406;-66
2021/12/27 00:45:58;;;;;;;26.00;12.90;;;;;;;6.95;100.00;98953.91;4989597;28;20108;-66
2021/12/27 00:48:25;;;;;;;24.27;12.07;;;;;;;6.93;100.00;98945.16;4991130;28;20482;-66
2021/12/27 00:50:50;;;;;;;25.35;11.88;;;;;;;6.88;100.00;98947.09;4992991;28;20022;-66
2021/12/27 00:53:15;;;;;;;24.90;10.48;;;;;;;6.95;100.00;98947.75;4990239;28;20034;-66
2021/12/27 00:55:41;;;;;;;26.13;11.15;;;;;;;7.00;100.00;98962.50;4993700;28;20482;-66
2021/12/27 00:58:06;;;;;;;23.40;11.57;;;;;;;6.92;100.00;98938.13;4990891;28;20022;-66
2021/12/27 01:00:32;;;;;;;24.25;12.05;;;;;;;7.04;100.00;98952.69;4992038;28;20474;-66
2021/12/27 01:02:58;;;;;;;24.02;10.85;;;;;;;7.05;100.00;98951.81;4997502;28;20038;-66
2021/12/27 01:05:25;;;;;;;23.73;10.40;;;;;;;7.06;100.00;98940.28;4989477;28;20125;-66
2021/12/27 01:07:51;;;;;;;28.77;11.27;;;;;;;7.09;100.00;98933.13;4992507;28;20429;-66
2021/12/27 01:10:42;;;;;;;22.92;10.27;;;;;;;7.17;100.00;98944.28;4990328;28;20034;-67
2021/12/27 01:18:04;;;;;;;20.20;9.73;;;;;;;7.05;100.00;98939.41;4990155;28;20394;-67
2021/12/27 01:20:30;;;;;;;26.05;10.00;;;;;;;7.18;100.00;98947.78;5006375;28;20025;-67
2021/12/27 01:22:56;;;;;;;21.70;9.43;;;;;;;7.21;100.00;98950.31;4990276;28;20512;-67
2021/12/27 01:25:22;;;;;;;21.60;9.98;;;;;;;7.21;100.00;98948.56;4990533;28;20037;-67
2021/12/27 01:27:51;;;;;;;25.40;10.65;;;;;;;7.26;100.00;98949.25;4992242;28;20038;-67
2021/12/27 01:30:19;;;;;;;18.98;10.23;;;;;;;7.28;100.00;98947.38;4989721;28;20053;-67
2021/12/27 01:32:48;;;;;;;18.27;9.32;;;;;;;7.26;100.00;98949.25;4992825;28;20054;-68
2021/12/27 01:35:14;;;;;;;23.13;9.20;;;;;;;7.25;100.00;98944.84;4990972;28;20057;-67
2021/12/27 01:37:40;;;;;;;23.80;9.95;;;;;;;7.24;100.00;98943.16;4991720;28;20030;-67
2021/12/27 01:40:07;;;;;;;23.05;9.90;;;;;;;7.27;100.00;98940.38;4993265;28;20064;-67
2021/12/27 01:42:32;;;;;;;22.90;9.60;;;;;;;7.26;100.00;98941.31;4992315;28;20645;-67
2021/12/27 01:44:58;;;;;;;20.90;11.00;;;;;;;7.19;100.00;98926.59;4990354;28;20043;-67
2021/12/27 01:47:23;;;;;;;21.17;8.85;;;;;;;7.24;100.00;98940.50;4996031;28;20028;-67
2021/12/27 01:49:49;;;;;;;18.23;8.77;;;;;;;7.30;100.00;98934.09;5008507;28;20030;-67
2021/12/27 01:52:14;;;;;;;20.08;10.00;;;;;;;7.30;100.00;98929.69;5009301;28;20126;-67
2021/12/27 01:54:40;;;;;;;22.27;9.05;;;;;;;7.33;100.00;98929.56;5010496;28;20079;-68
2021/12/27 01:57:06;;;;;;;21.25;9.35;;;;;;;7.34;100.00;98919.88;4997473;28;20026;-67
2021/12/27 01:59:31;;;;;;;21.38;8.75;;;;;;;7.36;100.00;98921.56;4989671;28;20030;-67
2021/12/27 02:01:57;;;;;;;18.15;9.95;;;;;;;7.36;100.00;98929.47;4990120;28;20524;-68
2021/12/27 02:04:23;;;;;;;23.00;10.38;;;;;;;7.27;100.00;98916.59;4990236;28;20033;-67
2021/12/27 02:06:48;;;;;;;16.83;9.48;;;;;;;7.34;100.00;98926.03;4991117;28;20034;-67
2021/12/27 02:09:14;;;;;;;21.45;9.63;;;;;;;7.35;100.00;98924.22;4990106;28;20026;-67
2021/12/27 02:11:39;;;;;;;21.98;9.63;;;;;;;7.42;100.00;98923.09;4990235;28;20026;-67
2021/12/27 02:14:05;;;;;;;21.75;8.77;;;;;;;7.38;100.00;98922.31;4990635;28;20030;-67
2021/12/27 02:16:34;;;;;;;19.13;9.27;;;;;;;7.38;100.00;98922.31;4991623;28;20072;-67
2021/12/27 02:18:59;;;;;;;17.85;7.80;;;;;;;7.38;100.00;98922.31;4988563;28;20473;-67
2021/12/27 02:21:26;;;;;;;16.98;8.93;;;;;;;7.38;100.00;98919.69;4990780;28;20077;-67
2021/12/27 02:23:54;;;;;;;25.83;8.88;;;;;;;7.42;100.00;98926.59;4976236;28;20080;-67
2021/12/27 02:26:20;;;;;;;17.67;9.02;;;;;;;7.42;100.00;98918.66;4989232;28;20025;-67
2021/12/27 02:28:47;;;;;;;20.27;9.15;;;;;;;7.70;100.00;98910.53;5001001;28;20025;-67
2021/12/27 02:31:14;;;;;;;20.75;9.38;;;;;;;7.40;100.00;98909.91;5009189;28;20026;-67
2021/12/27 02:33:42;;;;;;;19.10;8.40;;;;;;;7.67;100.00;98914.19;5009453;28;20064;-67
2021/12/27 02:36:09;;;;;;;19.25;9.55;;;;;;;7.50;100.00;98913.94;5002260;28;20033;-67
2021/12/27 02:38:37;;;;;;;19.98;9.38;;;;;;;7.38;100.00;98901.16;4989939;28;20026;-67
2021/12/27 02:41:03;;;;;;;18.83;8.43;;;;;;;7.46;100.00;98908.84;4989772;28;20054;-67
2021/12/27 02:43:30;;;;;;;19.15;8.98;;;;;;;7.47;100.00;98911.41;4990376;28;20041;-67
2021/12/27 02:46:05;;;;;;;22.77;10.65;;;;;;;7.41;100.00;98908.16;4986948;28;20501;-67
2021/12/27 02:48:36;;;;;;;18.00;9.23;;;;;;;7.40;100.00;98915.22;4971107;28;20058;-67
2021/12/27 02:51:02;;;;;;;19.80;9.02;;;;;;;7.41;100.00;98914.28;4991331;28;20064;-67
2021/12/27 02:53:30;;;;;;;22.00;8.98;;;;;;;7.44;100.00;98906.25;4989107;28;20084;-67
2021/12/27 02:55:58;;;;;;;16.33;9.35;;;;;;;7.43;100.00;98901.84;4989542;28;20022;-68
2021/12/27 02:58:24;;;;;;;20.02;9.45;;;;;;;7.48;100.00;98891.97;4999913;28;20050;-67
2021/12/27 03:01:04;;;;;;;19.65;9.50;;;;;;;7.50;100.00;98906.00;5005814;28;20385;-67
2021/12/27 03:03:29;;;;;;;21.90;9.68;;;;;;;7.52;100.00;98895.38;5007409;28;20049;-67
2021/12/27 03:05:55;;;;;;;16.75;8.60;;;;;;;7.51;100.00;98885.72;5008609;28;20077;-67
2021/12/27 03:08:24;;;;;;;21.42;8.88;;;;;;;7.39;100.00;98876.47;5007811;28;20048;-67
2021/12/27 03:10:52;;;;;;;20.50;9.18;;;;;;;7.49;100.00;98888.41;4998438;28;20062;-67
2021/12/27 03:13:20;;;;;;;20.98;8.10;;;;;;;7.47;100.00;98887.59;4989601;28;20057;-67
2021/12/27 03:15:50;;;;;;;19.83;9.07;;;;;;;7.47;100.00;98892.91;4990181;28;20033;-67
2021/12/27 03:18:16;;;;;;;21.27;10.23;;;;;;;7.36;100.00;98876.59;4991374;28;20478;-67
2021/12/27 03:20:42;;;;;;;19.48;8.68;;;;;;;7.46;100.00;98880.56;4991923;28;20026;-67
2021/12/27 03:23:08;;;;;;;22.55;9.80;;;;;;;7.82;100.00;98880.94;5006522;28;20034;-67
2021/12/27 03:25:33;;;;;;;21.92;8.10;;;;;;;7.93;100.00;98879.59;4999567;28;20037;-67
2021/12/27 03:27:59;;;;;;;17.48;8.98;;;;;;;7.99;100.00;98873.16;4991567;28;20119;-67
2021/12/27 03:30:26;;;;;;;17.38;8.48;;;;;;;8.01;100.00;98871.34;5008818;28;20508;-67
2021/12/27 03:32:53;;;;;;;21.55;9.07;;;;;;;8.03;100.00;98873.00;4993635;28;20031;-67
2021/12/27 03:35:25;;;;;;;19.40;8.38;;;;;;;7.98;100.00;98872.34;4991863;28;20030;-67
2021/12/27 03:37:54;;;;;;;18.67;8.70;;;;;;;8.03;100.00;98861.53;4998891;28;20116;-67
2021/12/27 03:40:20;;;;;;;24.40;9.75;;;;;;;8.09;100.00;98874.53;5004668;28;20032;-67
2021/12/27 03:42:49;;;;;;;20.98;8.88;;;;;;;8.16;100.00;98880.44;4994314;28;20022;-67
2021/12/27 03:45:17;;;;;;;18.40;8.63;;;;;;;8.19;100.00;98870.56;4991559;28;20027;-67
2021/12/27 03:47:43;;;;;;;19.33;8.68;;;;;;;8.16;100.00;98867.19;4994191;28;20113;-67
2021/12/27 03:50:08;;;;;;;22.52;9.00;;;;;;;8.19;100.00;98872.38;4999353;28;20142;-67
2021/12/27 03:52:34;;;;;;;23.17;9.30;;;;;;;8.18;100.00;98868.00;5001869;28;20526;-67
2021/12/27 03:54:59;;;;;;;17.08;8.68;;;;;;;8.20;100.00;98874.09;4998947;28;20101;-67
2021/12/27 03:57:25;;;;;;;23.83;9.85;;;;;;;8.19;100.00;98869.75;4991457;28;20037;-67
2021/12/27 04:00:14;;;;;;;23.00;8.60;;;;;;;8.18;100.00;98868.00;4994260;28;20049;-67
2021/12/27 04:02:37;;;;;;;22.48;9.45;;;;;;;8.21;100.00;98867.88;4991121;28;20046;-67
2021/12/27 04:05:04;;;;;;;23.17;9.25;;;;;;;8.25;100.00;98864.22;4991610;28;20057;-67
2021/12/27 04:07:34;;;;;;;19.85;8.50;;;;;;;8.20;100.00;98866.16;4991691;28;20054;-67
2021/12/27 04:10:00;;;;;;;21.38;9.75;;;;;;;8.15;100.00;98858.41;4993199;28;20037;-67
2021/12/27 04:12:25;;;;;;;21.33;8.82;;;;;;;8.16;100.00;98865.41;4991268;28;20394;-67
2021/12/27 04:14:50;;;;;;;18.75;9.60;;;;;;;8.15;100.00;98863.72;4991093;28;20026;-67
2021/12/27 04:17:16;;;;;;;17.10;8.15;;;;;;;8.17;100.00;98861.00;4992271;28;20030;-67
2021/12/27 04:19:41;;;;;;;19.35;8.77;;;;;;;8.15;100.00;98852.25;5000000;28;20057;-67
2021/12/27 04:22:07;;;;;;;23.77;10.95;;;;;;;8.09;100.00;98852.50;4990596;28;20109;-67
2021/12/27 04:24:32;;;;;;;20.80;9.63;;;;;;;8.12;100.00;98855.03;4992478;28;20491;-67
2021/12/27 04:26:57;;;;;;;21.95;10.50;;;;;;;8.13;100.00;98859.38;4997782;28;20400;-67
2021/12/27 04:29:23;;;;;;;28.77;9.63;;;;;;;8.12;100.00;98852.38;4991206;28;20033;-67
2021/12/27 04:31:48;;;;;;;20.50;8.70;;;;;;;7.72;100.00;98843.41;4991441;28;20325;-67
2021/12/27 04:34:14;;;;;;;20.60;8.63;;;;;;;7.99;100.00;98855.50;4973906;28;20049;-67
2021/12/27 04:36:39;;;;;;;19.88;8.63;;;;;;;8.00;100.00;98851.97;4994204;28;20146;-67
2021/12/27 04:39:05;;;;;;;21.33;10.38;;;;;;;8.02;100.00;98849.25;4990491;28;20030;-67
2021/12/27 04:41:30;;;;;;;23.73;9.02;;;;;;;8.07;100.00;98849.91;4994286;28;20034;-67
2021/12/27 04:43:56;;;;;;;20.60;8.75;;;;;;;8.03;100.00;98843.88;4994008;28;20022;-67
2021/12/27 04:46:21;;;;;;;17.55;8.30;;;;;;;7.95;100.00;98834.53;4991338;28;20023;-67
2021/12/27 04:48:51;;;;;;;20.20;10.57;;;;;;;8.03;100.00;98841.25;4990272;28;20114;-67
2021/12/27 04:51:16;;;;;;;19.20;8.65;;;;;;;8.02;100.00;98831.56;4992286;28;20458;-67
2021/12/27 04:53:42;;;;;;;20.15;8.85;;;;;;;8.10;100.00;98846.28;4993687;28;20034;-67
2021/12/27 04:56:07;;;;;;;21.55;8.40;;;;;;;8.11;100.00;98848.84;4991062;28;20030;-67
2021/12/27 04:58:33;;;;;;;19.50;9.15;;;;;;;8.04;100.00;98840.28;4989991;28;20442;-67
2021/12/27 05:00:58;;;;;;;21.67;9.43;;;;;;;8.13;100.00;98848.78;4991898;28;20596;-67
2021/12/27 05:03:27;;;;;;;23.17;10.75;;;;;;;8.13;100.00;98849.66;5000597;28;20026;-67
2021/12/27 05:05:52;;;;;;;18.55;9.07;;;;;;;8.12;100.00;98842.66;5010752;28;20053;-67
2021/12/27 05:08:18;;;;;;;21.58;9.02;;;;;;;8.15;100.00;98836.34;5009832;28;20042;-67
2021/12/27 05:10:43;;;;;;;22.88;8.05;;;;;;;8.19;100.00;98843.25;5011106;28;20022;-67
2021/12/27 05:13:08;;;;;;;19.45;9.80;;;;;;;8.21;100.00;98839.59;4996224;28;20030;-67
2021/12/27 05:15:34;;;;;;;32.65;10.07;;;;;;;8.11;100.00;98819.72;4990423;28;20023;-67
2021/12/27 05:17:59;;;;;;;30.42;10.48;;;;;;;8.08;100.00;98809.25;4990219;28;20022;-67
2021/12/27 05:20:25;;;;;;;25.10;10.23;;;;;;;8.11;100.00;98819.72;4991052;28;20029;-67
2021/12/27 05:22:50;;;;;;;27.40;11.20;;;;;;;8.12;100.00;98818.81;5000908;28;20367;-67
2021/12/27 05:25:19;;;;;;;23.17;10.15;;;;;;;8.03;100.00;98816.53;4990776;28;20101;-67
2021/12/27 05:27:45;;;;;;;25.27;10.45;;;;;;;8.07;100.00;98822.56;5000205;28;20018;-67
2021/12/27 05:30:12;;;;;;;19.75;8.93;;;;;;;7.96;100.00;98805.34;4991332;28;20374;-67
2021/12/27 05:32:39;;;;;;;19.60;9.60;;;;;;;7.87;100.00;98800.41;4989797;28;20036;-67
2021/12/27 05:35:05;;;;;;;24.45;10.73;;;;;;;7.82;100.00;98791.78;4990465;28;20026;-68
2021/12/27 05:37:31;;;;;;;24.85;10.18;;;;;;;7.85;100.00;98801.41;4992272;28;20014;-68
2021/12/27 05:40:03;;;;;;;23.75;9.38;;;;;;;7.81;100.00;98791.84;4989911;28;20030;-67
2021/12/27 05:42:28;;;;;;;23.77;9.20;;;;;;;7.79;100.00;98794.56;4997649;28;20022;-67
2021/12/27 05:44:54;;;;;;;21.30;9.95;;;;;;;7.66;100.00;98781.91;4992552;28;20030;-67
2021/12/27 05:47:19;;;;;;;20.35;8.55;;;;;;;7.70;100.00;98797.59;4990820;28;20030;-67
2021/12/27 05:49:45;;;;;;;21.13;8.50;;;;;;;7.70;100.00;98796.72;4992221;28;20058;-67
2021/12/27 05:52:10;;;;;;;18.52;8.23;;;;;;;7.68;100.00;98794.16;4989818;28;20038;-67
2021/12/27 05:54:35;;;;;;;24.35;9.52;;;;;;;7.66;100.00;98790.69;4992584;28;20332;-67
2021/12/27 05:57:01;;;;;;;23.92;9.20;;;;;;;7.67;100.00;98796.88;4988811;28;20447;-67
2021/12/27 05:59:26;;;;;;;26.45;9.40;;;;;;;7.62;100.00;98781.19;4990866;28;20026;-67
2021/12/27 06:01:52;;;;;;;22.25;9.23;;;;;;;7.64;100.00;98775.81;4991580;28;20050;-67
2021/12/27 06:04:17;;;;;;;22.27;9.88;;;;;;;7.66;100.00;98782.75;5009118;28;20272;-67
2021/12/27 06:06:43;;;;;;;20.27;8.20;;;;;;;7.69;100.00;98793.22;5009568;28;20025;-67
2021/12/27 06:09:08;;;;;;;18.45;8.55;;;;;;;7.73;100.00;98792.19;5005274;28;20509;-67
2021/12/27 06:11:34;;;;;;;22.80;8.18;;;;;;;7.70;100.00;98784.38;4988557;28;20058;-67
2021/12/27 06:14:00;;;;;;;16.73;8.45;;;;;;;7.74;100.00;98785.94;4989166;28;20059;-67
2021/12/27 06:16:25;;;;;;;23.58;9.30;;;;;;;7.82;100.00;98788.31;4990128;28;20022;-67
2021/12/27 06:18:51;;;;;;;20.48;9.82;;;;;;;7.86;100.00;98784.59;4992718;28;20026;-67
2021/12/27 06:21:16;;;;;;;17.63;8.23;;;;;;;7.89;100.00;98774.72;4989662;28;20113;-67
2021/12/27 06:23:43;;;;;;;23.58;9.18;;;;;;;7.94;100.00;98780.69;4991117;28;20478;-67
2021/12/27 06:26:08;;;;;;;27.65;9.95;;;;;;;7.93;100.00;98786.06;4989432;28;20026;-67
2021/12/27 06:28:34;;;;;;;20.92;9.80;;;;;;;7.50;100.00;98779.00;4989084;28;20092;-67
2021/12/27 06:31:01;;;;;;;19.63;9.20;;;;;;;7.59;100.00;98786.59;4998062;28;20081;-67
2021/12/27 06:33:27;;;;;;;18.80;9.25;;;;;;;7.77;100.00;98788.50;4989197;28;20194;-67
2021/12/27 06:35:53;;;;;;;20.90;9.80;;;;;;;7.76;100.00;98780.59;5009339;28;20033;-67
2021/12/27 06:38:20;;;;;;;19.65;8.88;;;;;;;7.86;100.00;98785.47;4995226;28;20478;-67
2021/12/27 06:40:49;;;;;;;19.30;9.05;;;;;;;7.86;100.00;98788.09;4992765;28;20030;-67
2021/12/27 06:43:15;;;;;;;18.20;8.77;;;;;;;7.87;100.00;98778.38;4989711;28;20054;-67
2021/12/27 06:45:41;;;;;;;19.05;8.95;;;;;;;7.89;100.00;98769.44;4987816;28;20061;-67
2021/12/27 06:48:06;;;;;;;18.42;8.98;;;;;;;7.83;100.00;98759.13;4993380;28;20026;-68
2021/12/27 06:50:32;;;;;;;19.45;8.70;;;;;;;7.86;100.00;98761.63;4989479;28;20441;-68
2021/12/27 06:52:57;;;;;;;18.27;8.32;;;;;;;7.89;100.00;98755.38;4988844;28;20034;-68
2021/12/27 06:55:23;;;;;;;22.00;8.38;;;;;;;7.92;100.00;98764.00;4991971;28;20034;-68
2021/12/27 06:57:49;;;;;;;21.15;9.68;;;;;;;7.92;100.00;98756.06;4989485;28;20457;-68
2021/12/27 07:00:15;;;;;;;23.30;10.00;;;;;;;7.85;100.00;98754.63;4974018;28;20538;-68
2021/12/27 07:02:42;;;;;;;34.30;9.23;;;;;;;7.88;100.00;98751.84;4994420;28;20265;-68
2021/12/27 07:05:08;;;;;;;22.88;9.77;;;;;;;7.88;100.00;98746.56;4993886;28;20066;-68
2021/12/27 07:07:34;;;;;;;16.85;8.75;;;;;;;7.89;100.00;98742.97;4992726;28;20034;-68
2021/12/27 07:09:59;;;;;;;17.67;9.80;;;;;;;7.86;100.00;98743.09;4992225;28;20019;-68
2021/12/27 07:12:24;;;;;;;19.70;8.15;;;;;;;7.83;100.00;98740.59;4995665;28;20080;-68
2021/12/27 07:14:50;;;;;;;19.98;9.20;;;;;;;7.89;100.00;98739.47;4992953;28;20513;-68
2021/12/27 07:17:16;;;;;;;20.48;10.35;;;;;;;7.92;100.00;98742.00;4992804;28;20387;-68
2021/12/27 07:19:42;;;;;;;22.70;9.63;;;;;;;7.86;100.00;98740.47;4992616;28;20057;-68
2021/12/27 07:22:08;;;;;;;22.35;9.90;;;;;;;7.77;100.00;98740.84;4981795;28;20484;-68
2021/12/27 07:24:34;;;;;;;21.70;9.48;;;;;;;7.66;100.00;98732.47;4997741;28;20038;-68
2021/12/27 07:27:00;;;;;;;17.00;9.05;;;;;;;7.64;100.00;98758.13;4993802;28;20037;-68
2021/12/27 07:29:25;;;;;;;15.73;7.88;;;;;;;7.50;100.00;98756.97;4993024;28;20022;-67
2021/12/27 07:31:51;;;;;;;17.55;9.25;;;;;;;7.43;100.00;98766.94;4992407;28;20104;-67
2021/12/27 07:34:19;;;;;;;23.45;8.38;;;;;;;7.43;100.00;98769.59;4996410;28;20658;-67
2021/12/27 07:36:47;;;;;;;14.80;7.97;;;;;;;7.18;100.00;98766.19;5004611;28;20092;-67
2021/12/27 07:39:13;;;;;;;20.50;8.95;;;;;;;7.07;100.00;98775.47;4994861;28;20027;-67
2021/12/27 07:41:39;;;;;;;16.83;7.80;;;;;;;7.02;100.00;98775.63;4991814;28;20030;-67
2021/12/27 07:44:05;;;;;;;17.80;8.35;;;;;;;7.01;100.00;98779.22;4976347;28;20109;-67
2021/12/27 07:46:31;;;;;;;14.45;8.02;;;;;;;7.44;100.00;98773.09;4994851;28;20030;-67
2021/12/27 07:48:57;;;;;;;14.65;7.70;;;;;;;7.55;100.00;98768.25;4991787;28;20022;-67
2021/12/27 07:51:22;;;;;;;17.35;8.70;;;;;;;7.67;100.00;98776.56;4994190;28;20026;-67
2021/12/27 07:53:48;;;;;;;17.98;8.25;;;;;;;7.75;100.00;98763.00;4990555;28;20088;-67
2021/12/27 07:56:13;;;;;;;33.17;8.43;;;;;;;7.78;100.00;98762.88;4991899;28;20033;-67
2021/12/27 07:58:39;;;;;;;16.30;8.05;;;;;;;7.89;100.00;98772.09;4994017;28;20124;-67
2021/12/27 08:01:05;;;;;;;21.40;8.70;;;;;;;7.89;100.00;98761.50;4991133;28;20018;-66
2021/12/27 08:03:30;;;;;;;19.63;8.43;;;;;;;8.07;100.00;98762.53;4994334;28;20558;-66
2021/12/27 08:05:55;;;;;;;20.55;8.52;;;;;;;8.23;100.00;98757.44;4991162;28;20053;-66
2021/12/27 08:08:21;;;;;;;19.02;9.48;;;;;;;8.41;100.00;98759.31;4991449;28;20026;-66
2021/12/27 08:10:47;;;;;;;21.98;11.68;;;;;;;8.48;100.00;98740.44;4994229;28;20018;-66
2021/12/27 08:13:12;;;;;;;24.90;12.90;;;;;;;8.71;100.00;98750.00;4998718;28;20022;-66
2021/12/27 08:15:38;;;;;;;26.55;14.10;;;;;;;8.82;100.00;98739.75;5008104;28;20293;-66
2021/12/27 08:18:04;;;;;;;26.42;12.77;;;;;;;8.98;100.00;98741.63;4988467;28;20124;-66
2021/12/27 08:20:30;;;;;;;24.10;13.98;;;;;;;9.13;100.00;98745.34;4992455;28;20101;-66
2021/12/27 08:22:55;;;;;;;26.85;15.30;;;;;;;9.30;100.00;98742.78;4979873;28;20033;-66
2021/12/27 08:25:21;;;;;;;38.97;19.40;;;;;;;9.57;100.00;98751.22;4997987;28;20059;-66
2021/12/27 08:27:46;;;;;;;30.83;15.55;;;;;;;9.79;100.00;98747.41;5000351;28;20037;-66
2021/12/27 08:30:13;;;;;;;30.05;14.02;;;;;;;9.96;100.00;98742.13;5011366;28;20030;-66
2021/12/27 08:32:42;;;;;;;26.20;12.27;;;;;;;10.03;100.00;98746.19;5010934;28;20033;-66
2021/12/27 08:35:09;;;;;;;26.42;12.25;;;;;;;10.05;100.00;98743.47;5009806;28;20425;-66
2021/12/27 08:37:34;;;;;;;24.98;12.02;;;;;;;10.15;100.00;98737.63;4999049;28;20034;-67
2021/12/27 08:40:00;;;;;;;25.55;12.57;;;;;;;10.23;100.00;98742.56;4991719;28;20037;-67
2021/12/27 08:42:26;;;;;;;22.23;11.15;;;;;;;10.34;100.00;98749.03;4995369;28;20522;-67
2021/12/27 08:44:52;;;;;;;20.25;9.55;;;;;;;10.44;100.00;98744.94;4990704;28;20255;-67
2021/12/27 08:47:18;;;;;;;18.17;9.25;;;;;;;10.58;100.00;98750.41;4990653;28;20108;-68
2021/12/27 08:49:44;;;;;;;18.52;9.63;;;;;;;10.74;100.00;98744.28;4993088;28;20041;-68
2021/12/27 08:52:10;;;;;;;23.40;10.23;;;;;;;11.00;100.00;98741.94;4990237;28;20019;-68
2021/12/27 08:54:35;;;;;;;21.30;11.10;;;;;;;11.53;100.00;98752.28;4994083;28;20041;-68
2021/12/27 08:57:03;;;;;;;23.45;11.82;;;;;;;12.70;100.00;98723.91;5008216;28;20095;-68
2021/12/27 08:59:28;;;;;;;24.70;12.63;;;;;;;14.33;99.37;98718.59;5007848;28;20095;-68
2021/12/27 09:01:54;;;;;;;22.10;12.02;;;;;;;16.43;88.16;98712.03;4996075;28;20509;-68
2021/12/27 09:04:19;;;;;;;15.93;9.68;;;;;;;18.28;67.17;98711.22;4993199;28;20137;-68
2021/12/27 09:06:45;;;;;;;16.38;8.57;;;;;;;18.96;59.01;98707.16;4989744;28;20072;-68
2021/12/27 09:09:10;;;;;;;13.07;8.18;;;;;;;18.53;56.92;98706.44;4992998;28;20023;-68
2021/12/27 09:11:35;;;;;;;14.50;8.15;;;;;;;19.40;56.64;98696.88;4989536;28;20113;-68
2021/12/27 09:14:01;;;;;;;9.30;5.75;;;;;;;20.63;52.11;98710.66;4992819;28;20088;-68
2021/12/27 09:16:27;;;;;;;10.55;6.35;;;;;;;21.26;49.22;98703.69;5005430;28;20026;-68
2021/12/27 09:18:52;;;;;;;9.68;5.78;;;;;;;22.12;46.40;98693.25;5009338;28;20048;-68
2021/12/27 09:21:18;;;;;;;18.35;9.40;;;;;;;22.53;46.05;98695.34;5011326;28;20067;-68
2021/12/27 09:23:43;;;;;;;13.88;7.95;;;;;;;23.11;44.75;98687.47;5005908;28;20036;-66
2021/12/27 09:26:09;;;;;;;10.23;6.10;;;;;;;23.53;43.16;98687.50;4993404;28;20129;-66
2021/12/27 09:28:34;;;;;;;8.23;5.32;;;;;;;23.31;43.02;98689.78;5000811;28;20164;-66
2021/12/27 09:31:00;;;;;;;8.38;5.05;;;;;;;22.98;43.70;98687.88;5008589;28;20112;-66
2021/12/27 09:33:25;;;;;;;17.75;15.85;;;;;;;23.66;43.21;98687.94;5000803;28;20470;-67
2021/12/27 09:35:53;;;;;;;10.10;6.30;;;;;;;23.73;42.78;98678.09;4990314;28;20022;-67
2021/12/27 09:38:18;;;;;;;14.23;6.65;;;;;;;24.28;42.77;98679.28;4991469;28;20402;-67
2021/12/27 09:40:44;;;;;;;12.30;5.72;;;;;;;24.48;41.40;98678.75;5003707;28;20034;-69
2021/12/27 09:43:10;;;;;;;10.10;5.80;;;;;;;25.05;40.94;98679.59;5008346;28;20026;-69
2021/12/27 09:45:35;;;;;;;7.10;4.55;;;;;;;24.42;41.03;98676.72;4993581;28;20125;-69
2021/12/27 09:48:02;;;;;;;8.13;4.22;;;;;;;23.58;42.03;98669.72;4988056;28;20154;-68
2021/12/27 09:50:33;;;;;;;10.52;5.18;;;;;;;22.22;44.19;98669.66;4991539;28;20452;-68
2021/12/27 09:52:59;;;;;;;12.10;5.65;;;;;;;21.30;46.84;98659.94;4991951;28;20475;-68
2021/12/27 09:55:26;;;;;;;10.15;5.55;;;;;;;20.36;48.81;98664.63;4996488;28;20355;-67
2021/12/27 09:57:53;;;;;;;9.05;6.47;;;;;;;19.71;50.21;98653.63;4989591;28;20026;-67
2021/12/27 10:00:18;;;;;;;8.77;5.68;;;;;;;19.37;51.14;98663.94;4992776;28;20118;-67
2021/12/27 10:02:48;;;;;;;7.25;4.22;;;;;;;18.79;54.31;98656.56;5000906;28;20064;-67
2021/12/27 10:05:13;;;;;;;8.48;4.93;;;;;;;18.46;54.96;98637.94;4982061;28;20041;-67
2021/12/27 10:07:41;;;;;;;10.60;5.47;;;;;;;17.95;55.83;98627.94;4988807;28;20091;-67
2021/12/27 10:10:08;;;;;;;11.18;5.65;;;;;;;17.42;58.67;98644.94;5002481;28;20029;-67
2021/12/27 10:12:34;;;;;;;9.30;5.00;;;;;;;16.85;60.97;98644.28;4991064;28;20485;-67
2021/12/27 10:15:02;;;;;;;12.40;5.20;;;;;;;16.54;62.83;98636.94;4992067;28;20084;-67
2021/12/27 10:17:32;;;;;;;8.35;4.78;;;;;;;16.61;62.86;98648.91;4990104;28;20081;-67
2021/12/27 10:20:08;;;;;;;8.10;4.63;;;;;;;16.55;64.61;98641.34;4991003;28;20611;-67
2021/12/27 10:22:42;;;;;;;8.38;5.00;;;;;;;16.46;64.95;98631.31;4994567;28;20518;-67
2021/12/27 10:25:20;;;;;;;10.90;5.60;;;;;;;16.41;67.00;98628.94;4993352;28;20030;-67
2021/12/27 10:27:50;;;;;;;15.48;7.85;;;;;;;16.41;65.94;98628.94;4996646;28;20022;-67
2021/12/27 10:30:18;;;;;;;10.60;6.20;;;;;;;16.19;67.77;98626.25;4989932;28;20077;-67
2021/12/27 10:33:00;;;;;;;10.80;5.20;;;;;;;16.12;68.13;98627.69;5006357;28;20317;-67
2021/12/27 10:35:52;;;;;;;8.85;4.88;;;;;;;15.97;69.30;98611.91;5011489;28;20030;-67
2021/12/27 10:38:40;;;;;;;9.80;6.05;;;;;;;16.13;67.86;98617.81;4992884;28;20030;-67
2021/12/27 10:41:11;;;;;;;11.50;7.80;;;;;;;16.22;68.94;98614.41;4995790;28;20042;-67
2021/12/27 10:43:36;;;;;;;14.00;7.50;;;;;;;16.29;68.62;98612.97;4993540;28;20462;-67
2021/12/27 10:46:04;;;;;;;9.07;5.45;;;;;;;16.42;69.30;98611.91;4994502;28;20057;-67
2021/12/27 10:48:35;;;;;;;13.77;5.82;;;;;;;16.34;67.83;98600.03;4994132;28;20037;-67
2021/12/27 10:51:02;;;;;;;12.20;5.75;;;;;;;16.32;68.97;98620.78;4995952;28;20038;-67
2021/12/27 10:53:44;;;;;;;8.52;4.90;;;;;;;16.21;69.25;98620.75;4993284;28;20041;-67
2021/12/27 10:56:10;;;;;;;9.10;4.88;;;;;;;16.25;69.95;98615.03;4994209;28;20615;-68
2021/12/27 10:58:38;;;;;;;9.13;4.35;;;;;;;16.48;69.07;98607.88;4993552;28;20045;-67
2021/12/27 11:01:09;;;;;;;6.90;4.32;;;;;;;16.78;68.92;98605.47;4986769;28;20022;-67
2021/12/27 11:03:36;;;;;;;6.03;4.07;;;;;;;17.03;66.70;98608.72;4974039;28;20027;-67
2021/12/27 11:06:04;;;;;;;9.10;4.85;;;;;;;17.05;66.19;98598.72;4993482;28;20545;-67
2021/12/27 11:08:30;;;;;;;6.22;4.05;;;;;;;17.04;65.37;98597.00;4995128;28;20034;-67
2021/12/27 11:10:56;;;;;;;7.55;3.95;;;;;;;16.59;67.01;98595.31;5000034;28;20018;-67
2021/12/27 11:13:23;;;;;;;5.90;3.63;;;;;;;16.29;67.71;98604.91;4993049;28;20041;-67
2021/12/27 11:15:48;;;;;;;6.20;3.83;;;;;;;15.96;70.11;98602.16;4993666;28;20501;-67
2021/12/27 11:18:15;;;;;;;6.47;3.92;;;;;;;16.12;70.86;98605.34;4977668;28;20030;-67
2021/12/27 11:20:47;;;;;;;6.22;3.72;;;;;;;15.87;71.39;98617.13;4991497;28;20394;-67
2021/12/27 11:23:14;;;;;;;7.85;4.45;;;;;;;15.04;75.89;98628.69;4974933;28;20481;-67
2021/12/27 11:25:43;;;;;;;7.88;4.10;;;;;;;14.92;76.96;98615.34;4994824;28;20066;-67
2021/12/27 11:28:28;;;;;;;7.13;4.30;;;;;;;14.79;79.51;98639.50;4973671;28;20026;-67